createdAt,value
2018-09-16T00:01:42.792Z,19.60
2018-09-16T00:04:11.794Z,19.50
2018-09-16T00:06:40.877Z,19.40
2018-09-16T00:09:10.921Z,19.30
2018-09-16T00:11:40.379Z,19.30
2018-09-16T00:14:09.492Z,19.30
2018-09-16T00:16:38.473Z,19.30
2018-09-16T00:19:07.484Z,19.30
2018-09-16T00:21:36.737Z,19.30
2018-09-16T00:24:05.841Z,19.30
2018-09-16T00:26:34.856Z,19.20
2018-09-16T00:29:03.977Z,19.00
2018-09-16T00:31:33.116Z,18.90
2018-09-16T00:34:02.043Z,18.80
2018-09-16T00:36:31.044Z,18.70
2018-09-16T00:39:00.224Z,18.70
2018-09-16T00:41:29.456Z,18.60
2018-09-16T00:43:58.524Z,18.70
2018-09-16T00:46:27.680Z,18.90
2018-09-16T00:48:56.799Z,18.90
2018-09-16T00:51:25.910Z,18.90
2018-09-16T00:53:55.024Z,18.90
2018-09-16T00:56:24.109Z,18.90
2018-09-16T00:58:53.295Z,18.90
2018-09-16T01:01:22.304Z,18.80
2018-09-16T01:03:51.375Z,18.80
2018-09-16T01:06:25.565Z,18.90
2018-09-16T01:08:54.579Z,18.90
2018-09-16T01:11:23.581Z,18.90
2018-09-16T01:13:52.663Z,18.90
2018-09-16T01:16:21.777Z,18.80
2018-09-16T01:18:50.933Z,18.80
2018-09-16T01:21:19.964Z,18.80
2018-09-16T01:23:48.947Z,18.80
2018-09-16T01:26:18.043Z,18.80
2018-09-16T01:28:47.171Z,18.80
2018-09-16T01:31:16.336Z,18.70
2018-09-16T01:33:45.352Z,18.70
2018-09-16T01:36:14.424Z,18.70
2018-09-16T01:38:48.531Z,18.60
2018-09-16T01:41:17.543Z,18.70
2018-09-16T01:43:46.651Z,18.70
2018-09-16T01:46:15.717Z,18.60
2018-09-16T01:48:45.145Z,18.60
2018-09-16T01:51:14.883Z,18.60
2018-09-16T01:53:43.884Z,18.50
2018-09-16T01:56:13.035Z,18.50
2018-09-16T01:58:42.607Z,18.50
2018-09-16T02:01:12.739Z,18.50
2018-09-16T02:03:42.047Z,18.50
2018-09-16T02:06:11.253Z,18.30
2018-09-16T02:08:40.383Z,18.30
2018-09-16T02:11:09.536Z,18.20
2018-09-16T02:13:38.624Z,18.00
2018-09-16T02:16:07.604Z,17.80
2018-09-16T02:18:36.743Z,17.90
2018-09-16T02:21:05.731Z,17.90
2018-09-16T02:23:34.809Z,18.00
2018-09-16T02:26:03.911Z,18.00
2018-09-16T02:28:33.089Z,18.10
2018-09-16T02:31:02.180Z,18.10
2018-09-16T02:33:31.310Z,18.10
2018-09-16T02:36:00.278Z,18.10
2018-09-16T02:38:29.348Z,18.10
2018-09-16T02:40:58.455Z,18.10
2018-09-16T02:43:27.646Z,18.10
2018-09-16T02:45:56.699Z,18.10
2018-09-16T02:48:25.852Z,18.10
2018-09-16T02:50:54.957Z,18.10
2018-09-16T02:53:23.927Z,18.10
2018-09-16T02:55:53.139Z,18.10
2018-09-16T02:58:22.259Z,18.10
2018-09-16T03:00:51.424Z,18.10
2018-09-16T03:03:20.541Z,17.90
2018-09-16T03:05:50.179Z,18.00
2018-09-16T03:08:20.300Z,18.00
2018-09-16T03:10:49.380Z,17.90
2018-09-16T03:13:18.536Z,17.90
2018-09-16T03:15:47.854Z,18.00
2018-09-16T03:18:16.923Z,18.00
2018-09-16T03:20:46.008Z,18.00
2018-09-16T03:23:15.158Z,18.00
2018-09-16T03:25:44.207Z,18.00
2018-09-16T03:28:13.300Z,18.00
2018-09-16T03:30:42.384Z,18.00
2018-09-16T03:33:11.425Z,18.00
2018-09-16T03:35:40.433Z,18.00
2018-09-16T03:38:09.364Z,18.00
2018-09-16T03:40:38.482Z,17.90
2018-09-16T03:43:07.592Z,17.90
2018-09-16T03:45:36.668Z,17.90
2018-09-16T03:48:05.924Z,17.90
2018-09-16T03:50:35.089Z,17.80
2018-09-16T03:53:04.037Z,17.80
2018-09-16T03:55:33.145Z,17.80
2018-09-16T03:58:02.228Z,17.60
2018-09-16T04:00:31.384Z,17.50
2018-09-16T04:03:00.531Z,17.50
2018-09-16T04:05:29.726Z,17.50
2018-09-16T04:07:58.836Z,17.60
2018-09-16T04:10:27.948Z,17.60
2018-09-16T04:12:57.063Z,17.60
2018-09-16T04:15:26.196Z,17.40
2018-09-16T04:17:55.300Z,17.40
2018-09-16T04:20:24.396Z,17.40
2018-09-16T04:22:53.500Z,17.40
2018-09-16T04:25:22.620Z,17.40
2018-09-16T04:27:51.688Z,17.30
2018-09-16T04:30:20.785Z,17.40
2018-09-16T04:32:49.860Z,17.50
2018-09-16T04:35:18.992Z,17.60
2018-09-16T04:37:47.988Z,17.60
2018-09-16T04:40:17.057Z,17.60
2018-09-16T04:42:46.033Z,17.60
2018-09-16T04:45:15.063Z,17.60
2018-09-16T04:47:44.044Z,17.60
2018-09-16T04:50:13.172Z,17.60
2018-09-16T04:52:42.229Z,17.60
2018-09-16T04:55:11.380Z,17.50
2018-09-16T04:57:40.407Z,17.60
2018-09-16T05:00:09.388Z,17.60
2018-09-16T05:02:38.783Z,17.60
2018-09-16T05:05:07.732Z,17.50
2018-09-16T05:07:36.871Z,17.50
2018-09-16T05:10:06.014Z,17.50
2018-09-16T05:12:35.105Z,17.50
2018-09-16T05:15:04.527Z,17.50
2018-09-16T05:17:33.491Z,17.50
2018-09-16T05:20:02.485Z,17.50
2018-09-16T05:22:31.608Z,17.50
2018-09-16T05:25:00.548Z,17.50
2018-09-16T05:27:29.683Z,17.50
2018-09-16T05:29:58.755Z,17.50
2018-09-16T05:32:27.827Z,17.50
2018-09-16T05:34:56.936Z,17.50
2018-09-16T05:37:25.926Z,17.40
2018-09-16T05:39:55.066Z,17.40
2018-09-16T05:42:24.028Z,17.30
2018-09-16T05:44:52.991Z,17.20
2018-09-16T05:47:22.018Z,17.20
2018-09-16T05:49:51.159Z,17.20
2018-09-16T05:52:20.299Z,17.20
2018-09-16T05:54:49.341Z,17.30
2018-09-16T05:57:18.582Z,17.30
2018-09-16T05:59:47.676Z,17.30
2018-09-16T06:02:16.856Z,17.10
2018-09-16T06:04:45.969Z,17.20
2018-09-16T06:07:14.984Z,17.20
2018-09-16T06:09:44.057Z,17.10
2018-09-16T06:12:13.152Z,17.20
2018-09-16T06:14:42.281Z,17.30
2018-09-16T06:17:11.296Z,17.30
2018-09-16T06:19:40.435Z,17.30
2018-09-16T06:22:09.343Z,17.30
2018-09-16T06:24:38.532Z,17.30
2018-09-16T06:27:07.585Z,17.30
2018-09-16T06:29:36.693Z,17.40
2018-09-16T06:32:05.820Z,17.30
2018-09-16T06:34:34.839Z,17.40
2018-09-16T06:37:03.893Z,17.40
2018-09-16T06:39:32.875Z,17.40
2018-09-16T06:42:02.013Z,17.40
2018-09-16T06:44:30.975Z,17.50
2018-09-16T06:47:00.078Z,17.50
2018-09-16T06:49:29.171Z,17.60
2018-09-16T06:51:58.435Z,17.60
2018-09-16T06:54:27.608Z,17.60
2018-09-16T06:56:56.752Z,17.70
2018-09-16T06:59:25.841Z,17.70
2018-09-16T07:01:54.959Z,17.70
2018-09-16T07:04:24.044Z,17.70
2018-09-16T07:06:53.161Z,17.80
2018-09-16T07:09:22.101Z,17.80
2018-09-16T07:11:51.134Z,17.80
2018-09-16T07:14:20.163Z,17.80
2018-09-16T07:16:49.219Z,17.80
2018-09-16T07:19:18.235Z,17.90
2018-09-16T07:21:47.208Z,17.90
2018-09-16T07:24:16.324Z,17.90
2018-09-16T07:26:45.418Z,18.00
2018-09-16T07:29:14.741Z,18.00
2018-09-16T07:31:48.227Z,18.00
2018-09-16T07:34:17.364Z,18.00
2018-09-16T07:36:46.908Z,18.00
2018-09-16T07:39:15.990Z,18.00
2018-09-16T07:41:45.102Z,18.10
2018-09-16T07:44:14.200Z,18.10
2018-09-16T07:46:43.259Z,18.20
2018-09-16T07:49:12.364Z,18.20
2018-09-16T07:51:41.549Z,18.30
2018-09-16T07:54:10.666Z,18.40
2018-09-16T07:56:39.669Z,18.40
2018-09-16T07:59:08.639Z,18.40
2018-09-16T08:01:37.640Z,18.50
2018-09-16T08:04:06.762Z,18.50
2018-09-16T08:06:35.825Z,18.60
2018-09-16T08:09:06.549Z,18.60
2018-09-16T08:11:35.655Z,18.70
2018-09-16T08:14:06.574Z,18.70
2018-09-16T08:16:35.756Z,18.80
2018-09-16T08:19:04.883Z,18.90
2018-09-16T08:21:34.014Z,18.90
2018-09-16T08:24:03.246Z,19.00
2018-09-16T08:26:32.574Z,19.00
2018-09-16T08:29:01.558Z,19.10
2018-09-16T08:31:30.602Z,19.10
2018-09-16T08:33:59.680Z,19.20
2018-09-16T08:36:28.831Z,19.20
2018-09-16T08:38:57.940Z,19.30
2018-09-16T08:41:27.140Z,19.30
2018-09-16T08:43:56.234Z,19.40
2018-09-16T08:46:25.369Z,19.40
2018-09-16T08:48:54.509Z,19.50
2018-09-16T08:51:23.534Z,19.50
2018-09-16T08:53:52.627Z,19.50
2018-09-16T08:56:21.621Z,19.60
2018-09-16T08:58:50.841Z,19.70
2018-09-16T09:01:19.922Z,19.70
2018-09-16T09:03:49.000Z,19.70
2018-09-16T09:06:18.090Z,19.70
2018-09-16T09:08:47.201Z,19.80
2018-09-16T09:11:16.337Z,19.90
2018-09-16T09:13:45.389Z,19.90
2018-09-16T09:16:14.391Z,20.00
2018-09-16T09:19:55.508Z,20.00
2018-09-16T09:22:24.789Z,20.10
2018-09-16T09:25:51.265Z,20.10
2018-09-16T09:28:20.297Z,20.20
2018-09-16T09:30:49.271Z,20.30
2018-09-16T09:33:18.472Z,20.30
2018-09-16T09:35:47.473Z,20.40
2018-09-16T09:38:16.463Z,20.40
2018-09-16T09:40:45.576Z,20.50
2018-09-16T09:43:14.647Z,20.60
2018-09-16T09:45:43.918Z,20.60
2018-09-16T09:48:13.127Z,20.70
2018-09-16T09:50:42.227Z,20.70
2018-09-16T09:53:11.460Z,20.80
2018-09-16T09:55:40.629Z,20.80
2018-09-16T09:58:09.723Z,20.90
2018-09-16T10:00:44.349Z,21.00
2018-09-16T10:03:13.465Z,21.00
2018-09-16T10:05:42.512Z,21.10
2018-09-16T10:08:11.614Z,21.10
2018-09-16T10:10:40.719Z,21.20
2018-09-16T10:13:09.901Z,21.30
2018-09-16T10:15:39.068Z,21.30
2018-09-16T10:18:08.207Z,21.40
2018-09-16T10:20:37.402Z,21.40
2018-09-16T10:23:06.918Z,21.50
2018-09-16T10:25:36.005Z,21.50
2018-09-16T10:28:05.111Z,21.60
2018-09-16T10:30:34.111Z,21.70
2018-09-16T10:33:03.201Z,21.80
2018-09-16T10:35:32.397Z,21.80
2018-09-16T10:38:01.479Z,21.90
2018-09-16T10:40:30.600Z,22.00
2018-09-16T10:42:59.698Z,22.00
2018-09-16T10:45:28.694Z,22.10
2018-09-16T10:47:57.787Z,22.20
2018-09-16T10:50:26.992Z,22.30
2018-09-16T10:52:56.053Z,22.30
2018-09-16T10:55:25.166Z,22.40
2018-09-16T10:57:54.243Z,22.50
2018-09-16T11:00:23.357Z,22.50
2018-09-16T11:02:52.478Z,22.60
2018-09-16T11:05:21.640Z,22.70
2018-09-16T11:07:50.769Z,22.70
2018-09-16T11:10:19.917Z,22.80
2018-09-16T11:12:49.008Z,22.90
2018-09-16T11:15:18.042Z,23.00
2018-09-16T11:17:47.199Z,23.10
2018-09-16T11:20:16.498Z,23.10
2018-09-16T11:22:45.601Z,23.20
2018-09-16T11:25:14.586Z,23.30
2018-09-16T11:27:43.597Z,23.30
2018-09-16T11:30:12.665Z,23.50
2018-09-16T11:32:41.667Z,23.60
2018-09-16T11:35:10.768Z,23.70
2018-09-16T11:37:39.750Z,23.80
2018-09-16T11:40:08.888Z,23.90
2018-09-16T11:42:37.957Z,23.90
2018-09-16T11:45:07.141Z,24.10
2018-09-16T11:47:36.347Z,24.10
2018-09-16T11:50:05.771Z,24.20
2018-09-16T11:52:34.865Z,24.30
2018-09-16T11:55:03.914Z,24.40
2018-09-16T11:57:33.028Z,24.50
2018-09-16T12:00:01.367Z,24.60
2018-09-16T12:02:29.422Z,24.70
2018-09-16T12:04:57.612Z,24.80
2018-09-16T12:07:26.745Z,24.90
2018-09-16T12:09:55.836Z,25.00
2018-09-16T12:12:24.820Z,25.10
2018-09-16T12:14:53.920Z,25.20
2018-09-16T12:17:23.041Z,25.30
2018-09-16T12:19:52.100Z,25.40
2018-09-16T12:22:20.158Z,25.40
2018-09-16T12:24:48.216Z,25.50
2018-09-16T12:27:16.286Z,25.60
2018-09-16T12:29:44.465Z,25.60
2018-09-16T12:32:12.517Z,25.70
2018-09-16T12:34:40.602Z,25.80
2018-09-16T12:37:08.672Z,25.90
2018-09-16T12:39:36.742Z,26.00
2018-09-16T12:42:04.915Z,26.10
2018-09-16T12:44:33.048Z,26.20
2018-09-16T12:47:01.137Z,26.30
2018-09-16T12:49:29.187Z,26.40
2018-09-16T12:51:57.307Z,26.40
2018-09-16T12:54:25.333Z,26.50
2018-09-16T12:56:53.539Z,26.60
2018-09-16T12:59:21.721Z,26.70
2018-09-16T13:01:49.911Z,26.80
2018-09-16T13:04:18.016Z,26.90
2018-09-16T13:06:46.244Z,27.00
2018-09-16T13:09:14.307Z,27.00
2018-09-16T13:11:42.481Z,27.10
2018-09-16T13:14:10.552Z,27.10
2018-09-16T13:16:38.600Z,27.20
2018-09-16T13:19:06.662Z,27.30
2018-09-16T13:21:34.831Z,27.40
2018-09-16T13:24:03.312Z,27.40
2018-09-16T13:26:31.521Z,27.30
2018-09-16T13:28:59.592Z,27.40
2018-09-16T13:31:27.659Z,27.40
2018-09-16T13:33:55.634Z,27.40
2018-09-16T13:36:23.701Z,27.40
2018-09-16T13:38:52.836Z,27.50
2018-09-16T13:41:21.928Z,27.40
2018-09-16T13:43:51.027Z,27.40
2018-09-16T13:46:20.124Z,27.40
2018-09-16T13:48:49.251Z,27.30
2018-09-16T13:51:18.370Z,27.30
2018-09-16T13:53:47.405Z,27.30
2018-09-16T13:56:16.465Z,27.30
2018-09-16T13:58:45.607Z,27.40
2018-09-16T14:01:14.614Z,27.50
2018-09-16T14:03:44.363Z,27.60
2018-09-16T14:06:13.387Z,27.60
2018-09-16T14:08:42.484Z,27.70
2018-09-16T14:11:11.815Z,27.80
2018-09-16T14:13:40.778Z,27.80
2018-09-16T14:16:09.873Z,27.80
2018-09-16T14:18:38.972Z,27.90
2018-09-16T14:21:08.201Z,27.90
2018-09-16T14:23:37.253Z,28.00
2018-09-16T14:26:06.392Z,28.00
2018-09-16T14:28:35.653Z,28.10
2018-09-16T14:31:04.641Z,28.20
2018-09-16T14:33:33.766Z,28.20
2018-09-16T14:36:02.732Z,28.30
2018-09-16T14:38:31.863Z,28.30
2018-09-16T14:41:00.888Z,28.30
2018-09-16T14:43:29.911Z,28.30
2018-09-16T14:45:58.919Z,28.40
2018-09-16T14:48:27.988Z,28.40
2018-09-16T14:50:56.949Z,28.40
2018-09-16T14:53:26.100Z,28.40
2018-09-16T14:55:55.389Z,28.50
2018-09-16T14:58:24.503Z,28.50
2018-09-16T15:00:53.845Z,28.50
2018-09-16T15:03:23.216Z,28.50
2018-09-16T15:05:52.376Z,28.60
2018-09-16T15:08:21.482Z,28.50
2018-09-16T15:10:50.571Z,28.50
2018-09-16T15:13:19.643Z,28.50
2018-09-16T15:15:48.669Z,28.50
2018-09-16T15:18:17.770Z,28.50
2018-09-16T15:20:47.099Z,28.50
2018-09-16T15:23:16.247Z,28.50
2018-09-16T15:25:45.371Z,28.50
2018-09-16T15:28:14.545Z,28.50
2018-09-16T15:30:43.759Z,28.60
2018-09-16T15:33:12.874Z,28.60
2018-09-16T15:35:42.039Z,28.60
2018-09-16T15:38:11.142Z,28.50
2018-09-16T15:40:40.223Z,28.50
2018-09-16T15:43:09.320Z,28.50
2018-09-16T15:45:38.433Z,28.40
2018-09-16T15:48:07.622Z,28.40
2018-09-16T15:50:36.705Z,28.40
2018-09-16T15:53:05.835Z,28.30
2018-09-16T15:55:34.893Z,28.30
2018-09-16T15:58:04.049Z,28.30
2018-09-16T16:00:33.410Z,28.20
2018-09-16T16:03:02.509Z,28.10
2018-09-16T16:05:31.541Z,28.10
2018-09-16T16:08:00.684Z,28.10
2018-09-16T16:10:29.714Z,28.00
2018-09-16T16:12:58.769Z,27.90
2018-09-16T16:15:27.849Z,27.90
2018-09-16T16:17:56.961Z,27.80
2018-09-16T16:20:26.149Z,27.70
2018-09-16T16:22:55.260Z,27.60
2018-09-16T16:25:24.151Z,27.60
2018-09-16T16:27:53.241Z,27.50
2018-09-16T16:30:22.347Z,27.40
2018-09-16T16:32:51.516Z,27.30
2018-09-16T16:35:20.759Z,27.30
2018-09-16T16:37:49.824Z,27.30
2018-09-16T16:40:18.793Z,27.20
2018-09-16T16:42:48.017Z,27.20
2018-09-16T16:45:17.194Z,27.10
2018-09-16T16:47:46.308Z,27.10
2018-09-16T16:50:15.631Z,27.00
2018-09-16T16:52:44.799Z,27.00
2018-09-16T16:55:14.017Z,26.90
2018-09-16T16:57:43.428Z,26.90
2018-09-16T17:02:20.696Z,26.80
2018-09-16T17:04:49.688Z,26.70
2018-09-16T17:07:18.752Z,26.60
2018-09-16T17:09:47.765Z,26.60
2018-09-16T17:12:16.802Z,26.50
2018-09-16T17:14:45.915Z,26.50
2018-09-16T17:17:15.032Z,26.40
2018-09-16T17:19:44.137Z,26.30
2018-09-16T17:22:13.269Z,26.30
2018-09-16T17:24:42.336Z,26.20
2018-09-16T17:27:12.194Z,26.20
2018-09-16T17:29:41.264Z,26.20
2018-09-16T17:32:10.342Z,26.10
2018-09-16T17:34:39.344Z,26.00
2018-09-16T17:37:08.621Z,25.90
2018-09-16T17:39:38.475Z,25.90
2018-09-16T17:42:07.639Z,25.80
2018-09-16T17:44:36.617Z,25.70
2018-09-16T17:47:05.584Z,25.60
2018-09-16T17:49:34.934Z,25.60
2018-09-16T17:52:04.010Z,25.50
2018-09-16T17:54:33.209Z,25.50
2018-09-16T17:57:02.612Z,25.40
2018-09-16T17:59:31.713Z,25.40
2018-09-16T18:02:00.859Z,25.30
2018-09-16T18:04:30.002Z,25.20
2018-09-16T18:06:59.204Z,25.20
2018-09-16T18:09:28.294Z,25.10
2018-09-16T18:11:57.293Z,25.10
2018-09-16T18:15:06.380Z,25.00
2018-09-16T18:17:35.842Z,24.90
2018-09-16T18:20:04.945Z,24.90
2018-09-16T18:22:33.172Z,24.80
2018-09-16T18:25:02.302Z,24.80
2018-09-16T18:27:31.419Z,24.80
2018-09-16T18:30:00.623Z,24.70
2018-09-16T18:32:28.714Z,24.70
2018-09-16T18:34:56.850Z,24.60
2018-09-16T18:37:26.213Z,24.60
2018-09-16T18:39:55.460Z,24.50
2018-09-16T18:42:24.512Z,24.40
2018-09-16T18:44:53.792Z,24.40
2018-09-16T18:47:23.010Z,24.30
2018-09-16T18:49:51.148Z,24.40
2018-09-16T18:52:19.422Z,24.30
2018-09-16T18:54:48.470Z,24.30
2018-09-16T18:57:17.581Z,24.20
2018-09-16T18:59:45.650Z,24.20
2018-09-16T19:02:13.740Z,24.10
2018-09-16T19:04:41.930Z,23.90
2018-09-16T19:07:10.204Z,23.80
2018-09-16T19:09:38.252Z,23.70
2018-09-16T19:12:06.339Z,23.80
2018-09-16T19:14:34.517Z,23.80
2018-09-16T19:17:02.703Z,23.80
2018-09-16T19:19:30.736Z,23.80
2018-09-16T19:21:59.038Z,23.70
2018-09-16T19:24:27.524Z,23.60
2018-09-16T19:26:55.572Z,23.50
2018-09-16T19:29:23.728Z,23.50
2018-09-16T19:31:51.836Z,23.50
2018-09-16T19:34:20.044Z,23.50
2018-09-16T19:36:48.210Z,23.40
2018-09-16T19:39:16.457Z,23.40
2018-09-16T19:41:44.644Z,23.30
2018-09-16T19:44:12.695Z,23.30
2018-09-16T19:46:40.890Z,23.30
2018-09-16T19:49:08.936Z,23.20
2018-09-16T19:51:37.120Z,23.10
2018-09-16T19:54:05.292Z,23.10
2018-09-16T19:56:33.397Z,23.10
2018-09-16T19:59:01.547Z,23.00
2018-09-16T20:01:29.704Z,22.90
2018-09-16T20:03:57.988Z,22.90
2018-09-16T20:06:26.878Z,22.90
2018-09-16T20:08:54.989Z,22.70
2018-09-16T20:11:23.027Z,22.70
2018-09-16T20:13:51.194Z,22.70
2018-09-16T20:16:19.538Z,22.70
2018-09-16T20:18:47.737Z,22.70
2018-09-16T20:21:15.786Z,22.70
2018-09-16T20:23:44.038Z,22.60
2018-09-16T20:26:12.402Z,22.50
2018-09-16T20:28:40.700Z,22.60
2018-09-16T20:31:08.913Z,22.40
2018-09-16T20:33:37.082Z,22.40
2018-09-16T20:36:05.145Z,22.40
2018-09-16T20:38:33.275Z,22.30
2018-09-16T20:41:01.503Z,22.20
2018-09-16T20:43:29.659Z,22.30
2018-09-16T20:45:57.743Z,22.20
2018-09-16T20:48:25.915Z,22.20
2018-09-16T20:50:53.987Z,22.20
2018-09-16T20:53:22.040Z,22.10
2018-09-16T20:55:50.540Z,22.00
2018-09-16T20:58:18.596Z,21.90
2018-09-16T21:00:46.722Z,21.90
2018-09-16T21:03:14.861Z,21.80
2018-09-16T21:05:43.027Z,21.70
2018-09-16T21:08:11.137Z,21.70
2018-09-16T21:10:39.376Z,21.70
2018-09-16T21:13:07.551Z,21.70
2018-09-16T21:15:35.716Z,21.70
2018-09-16T21:18:03.747Z,21.50
2018-09-16T21:20:32.066Z,21.50
2018-09-16T21:23:00.193Z,21.50
2018-09-16T21:25:28.352Z,21.50
2018-09-16T21:27:57.449Z,21.50
2018-09-16T21:30:25.581Z,21.50
2018-09-16T21:32:54.748Z,21.40
2018-09-16T21:35:23.935Z,21.20
2018-09-16T21:37:53.024Z,21.10
2018-09-16T21:40:22.096Z,21.20
2018-09-16T21:42:51.190Z,21.10
2018-09-16T21:45:20.535Z,21.10
2018-09-16T21:47:49.708Z,21.20
2018-09-16T21:50:18.708Z,21.20
2018-09-16T21:52:47.776Z,21.20
2018-09-16T21:55:16.887Z,21.20
2018-09-16T21:57:46.022Z,21.20
2018-09-16T22:00:15.170Z,21.20
2018-09-16T22:02:44.278Z,21.00
2018-09-16T22:05:13.348Z,20.80
2018-09-16T22:07:42.343Z,20.90
2018-09-16T22:10:11.472Z,20.90
2018-09-16T22:12:40.435Z,21.00
2018-09-16T22:15:09.549Z,21.00
2018-09-16T22:17:38.540Z,20.90
2018-09-16T22:20:07.600Z,20.90
2018-09-16T22:22:36.737Z,20.90
2018-09-16T22:25:05.885Z,20.90
2018-09-16T22:27:35.108Z,20.90
2018-09-16T22:30:04.406Z,20.90
2018-09-16T22:32:33.432Z,20.80
2018-09-16T22:35:02.507Z,20.80
2018-09-16T22:37:31.517Z,20.80
2018-09-16T22:40:00.588Z,20.70
2018-09-16T22:42:29.682Z,20.80
2018-09-16T22:44:58.783Z,20.70
2018-09-16T22:47:27.900Z,20.70
2018-09-16T22:49:56.959Z,20.70
2018-09-16T22:52:25.968Z,20.70
2018-09-16T22:54:55.149Z,20.60
2018-09-16T22:57:24.348Z,20.50
2018-09-16T22:59:53.568Z,20.40
2018-09-16T23:02:22.536Z,20.40
2018-09-16T23:04:51.728Z,20.30
2018-09-16T23:07:21.053Z,20.30
2018-09-16T23:09:50.023Z,20.30
2018-09-16T23:12:19.133Z,20.20
2018-09-16T23:14:48.212Z,20.10
2018-09-16T23:17:17.219Z,20.10
2018-09-16T23:19:46.200Z,20.10
2018-09-16T23:22:15.192Z,20.00
2018-09-16T23:24:44.297Z,20.00
2018-09-16T23:27:13.379Z,20.10
2018-09-16T23:29:42.469Z,20.10
2018-09-16T23:32:11.454Z,20.00
2018-09-16T23:34:40.559Z,20.00
2018-09-16T23:37:09.667Z,20.00
2018-09-16T23:39:38.655Z,19.90
2018-09-16T23:42:08.020Z,19.90
2018-09-16T23:44:37.139Z,19.90
2018-09-16T23:47:06.679Z,19.90
2018-09-16T23:49:35.767Z,19.80
2018-09-16T23:52:04.961Z,19.80
2018-09-16T23:54:34.033Z,19.70
2018-09-16T23:57:03.119Z,19.70
2018-09-16T23:59:32.227Z,19.70
